Terminal Aerodrome Forecast
Issued by NWS Miami, FL

Current Version | Previous Version | Text Only | Print | Product List | Glossary On
Versions: 1 2 3 4 5 6 7 8 9 10 11 12 13 14 15 16 17 18 19 20 21 22 23 24
000
FTUS42 KMFL 310838 AAA
TAFFLL
TAF AMD
KFLL 310838Z 3109/0106 12006KT P6SM VCSH FEW025 SCT200
      TEMPO 3109/3112 VRB08KT SHRA SCT025
     FM311200 VRB05KT P6SM VCSH FEW030 SCT250
     FM311600 13009KT P6SM VCSH SCT025 SCT100 BKN250
     FM010200 13006KT P6SM SCT030 SCT250=

USA.gov is the U.S. government's official web portal to all federal, state and local government web resources and services.